SUCCESS DAM (SCC)

Elevation: 692' · TULE R basin · Operator: US Army Corps of Engineers

Provisional data, subject to change.
Query executed Friday at 9:23:11

Select a sensor type for a plot of data.
Note: Reservoir Flows are daily averages.

Earlier

Date RES ELE    STORAGE    RES CHG    TOC STO    ABV TOC    OUTFLOW    INFLOW    FNF    PPT INC    PPTINC4    TEMP MN    TEMP MX    WINDLEN    EVP PAN   
 FEET   AF   AF   AF   AF   CFS   CFS   CFS   INCHES   INCHES   DEG F   DEG F   MILES   INCHES  
11/10/2016 582.27 4914 7 12237 -7323 7 12 12 0.02 0.00 51 85 56 0.11
11/11/2016 582.29 4920 6 11250 -6330 7 11 11 0.01 0.00 50 89 57 0.12
11/12/2016 582.34 4935 -- 10500 -5565 3 11 11 0.00 0.00 13 25 58 0.09
11/13/2016 582.40 4954 -- 10500 -5546 1 12 12 0.00 0.00 11 26 60 0.10
11/14/2016 582.45 4970 16 10500 -5530 1 10 10 0.00 0.00 10 27 58 0.10
11/15/2016 582.50 4985 -- 10500 -5515 4 12 12 0.00 0.00 10 27 52 0.09
11/16/2016 582.54 4998 13 10500 -5502 2 10 10 0.00 0.00 6 16 54 0.05
11/17/2016 582.59 5014 16 10500 -5486 2 11 11 0.00 0.00 3 18 56 0.08
11/18/2016 582.64 5030 16 10500 -5470 2 11 11 0.00 0.00 4 22 61 0.09
11/19/2016 582.70 5049 -- 10500 -5451 1 11 11 0.00 0.00 5 23 58 0.09
11/20/2016 582.77 5071 -- 10500 -5429 0 12 12 0.00 0.00 7 22 58 0.08
11/21/2016 582.82 5087 16 10500 -5413 4 12 12 0.00 0.03 8 17 40 0.04
11/22/2016 582.85 5096 9 10500 -5404 9 15 15 0.00 0.00 6 18 51 0.06
11/23/2016 582.87 5103 7 10500 -5397 8 12 12 0.00 0.00 7 17 56 0.05
11/24/2016 582.92 5119 16 10500 -5381 6 15 15 0.00 0.00 5 18 51 0.07
11/25/2016 582.97 5135 16 10500 -5365 5 14 14 0.00 0.00 2 20 61 0.08
11/26/2016 583.02 5151 16 10500 -5349 5 14 14 0.00 0.00 4 20 65 0.08
11/27/2016 583.21 5212 61 10500 -5288 5 37 37 0.46 0.31 6 14 54 0.05
11/28/2016 583.24 5222 10 10500 -5278 32 38 38 0.00 0.41 6 13 41 0.04
11/29/2016 583.05 5160 -62 10500 -5340 50 20 20 0.01 0.00 6 15 51 0.05
11/30/2016 582.90 5112 -48 10500 -5388 46 23 23 0.00 0.00 3 16 50 0.06
12/01/2016 582.75 5064 -48 10500 -5436 45 22 22 0.00 0.00 4 13 48 0.04
12/02/2016 582.59 5014 -50 10500 -5486 42 17 17 0.00 0.00 4 13 45 0.04
12/03/2016 582.44 4967 -47 10500 -5533 40 17 17 0.00 -- 1 15 53 0.06
12/04/2016 582.29 4920 -47 10500 -5580 40 17 17 0.00 0.00 2 17 64 0.06
12/05/2016 582.21 4895 -25 10500 -5605 31 19 19 0.00 0.00 3 16 50 0.06
12/06/2016 582.17 4883 -12 10500 -5617 26 21 21 0.00 0.00 5 11 38 0.03
12/07/2016 582.11 4864 -19 10500 -5636 29 20 20 0.00 0.00 6 13 47 0.05
12/08/2016 582.09 4858 -6 10500 -5642 27 25 -- 0.22 0.01 8 14 49 0.03
12/09/2016 -- -- -- -- -- -- -- -- -- 0.20 -- -- -- --

Later | Latest

Warning! This data is preliminary and subject to revision.

Show SCC Map | Plot SCC Data | 1 Month SCC Data | Real-Time SCC Data | SCC Info